sensor_id;sensor_type;location;lat;lon;timestamp;temperature;humidity
16823;DHT22;8528;49.976;11.858;2023-03-03T00:01:52;-1.70;99.90
16823;DHT22;8528;49.976;11.858;2023-03-03T00:04:19;-1.70;99.90
16823;DHT22;8528;49.976;11.858;2023-03-03T00:06:46;-1.70;99.90
16823;DHT22;8528;49.976;11.858;2023-03-03T00:09:13;-1.70;99.90
16823;DHT22;8528;49.976;11.858;2023-03-03T00:11:40;-1.70;99.90
16823;DHT22;8528;49.976;11.858;2023-03-03T00:14:22;-1.70;99.90
16823;DHT22;8528;49.976;11.858;2023-03-03T00:16:51;-1.70;99.90
16823;DHT22;8528;49.976;11.858;2023-03-03T00:19:19;-1.80;99.90
16823;DHT22;8528;49.976;11.858;2023-03-03T00:21:50;-1.80;99.90
16823;DHT22;8528;49.976;11.858;2023-03-03T00:24:34;-1.80;99.90
16823;DHT22;8528;49.976;11.858;2023-03-03T00:27:16;-1.80;99.90
16823;DHT22;8528;49.976;11.858;2023-03-03T00:29:49;-1.90;99.90
16823;DHT22;8528;49.976;11.858;2023-03-03T00:32:24;-1.90;99.90
16823;DHT22;8528;49.976;11.858;2023-03-03T00:34:55;-1.90;99.90
16823;DHT22;8528;49.976;11.858;2023-03-03T00:37:33;-1.80;99.90
16823;DHT22;8528;49.976;11.858;2023-03-03T00:40:15;-1.80;99.90
16823;DHT22;8528;49.976;11.858;2023-03-03T00:42:49;-1.90;99.90
16823;DHT22;8528;49.976;11.858;2023-03-03T00:45:26;-1.90;99.90
16823;DHT22;8528;49.976;11.858;2023-03-03T00:47:55;-1.90;99.90
16823;DHT22;8528;49.976;11.858;2023-03-03T00:50:33;-1.90;99.90
16823;DHT22;8528;49.976;11.858;2023-03-03T00:53:15;-1.90;99.90
16823;DHT22;8528;49.976;11.858;2023-03-03T00:55:43;-1.80;99.90
16823;DHT22;8528;49.976;11.858;2023-03-03T00:58:10;-1.80;99.90
16823;DHT22;8528;49.976;11.858;2023-03-03T01:00:38;-1.90;99.90
16823;DHT22;8528;49.976;11.858;2023-03-03T01:03:08;-1.90;99.90
16823;DHT22;8528;49.976;11.858;2023-03-03T01:05:35;-1.90;99.90
16823;DHT22;8528;49.976;11.858;2023-03-03T01:08:02;-2.00;99.90
16823;DHT22;8528;49.976;11.858;2023-03-03T01:10:56;-2.10;99.90
16823;DHT22;8528;49.976;11.858;2023-03-03T01:13:30;-2.10;99.90
16823;DHT22;8528;49.976;11.858;2023-03-03T01:15:58;-2.10;99.90
16823;DHT22;8528;49.976;11.858;2023-03-03T01:18:25;-2.00;99.90
16823;DHT22;8528;49.976;11.858;2023-03-03T01:20:52;-1.90;99.90
16823;DHT22;8528;49.976;11.858;2023-03-03T01:23:19;-1.90;99.90
16823;DHT22;8528;49.976;11.858;2023-03-03T01:25:46;-1.90;99.90
16823;DHT22;8528;49.976;11.858;2023-03-03T01:28:13;-1.90;99.90
16823;DHT22;8528;49.976;11.858;2023-03-03T01:30:40;-1.90;99.90
16823;DHT22;8528;49.976;11.858;2023-03-03T01:33:07;-1.90;99.90
16823;DHT22;8528;49.976;11.858;2023-03-03T01:35:33;-1.90;99.90
16823;DHT22;8528;49.976;11.858;2023-03-03T01:38:02;-1.90;99.90
16823;DHT22;8528;49.976;11.858;2023-03-03T01:40:29;-2.00;99.90
16823;DHT22;8528;49.976;11.858;2023-03-03T01:43:00;-2.00;99.90
16823;DHT22;8528;49.976;11.858;2023-03-03T01:45:29;-2.10;99.90
16823;DHT22;8528;49.976;11.858;2023-03-03T01:52:59;-2.20;99.90
16823;DHT22;8528;49.976;11.858;2023-03-03T01:55:33;-2.30;99.90
16823;DHT22;8528;49.976;11.858;2023-03-03T01:58:04;-2.30;99.90
16823;DHT22;8528;49.976;11.858;2023-03-03T02:00:35;-2.40;99.90
16823;DHT22;8528;49.976;11.858;2023-03-03T02:03:04;-2.40;99.90
16823;DHT22;8528;49.976;11.858;2023-03-03T02:05:32;-2.40;99.90
16823;DHT22;8528;49.976;11.858;2023-03-03T02:08:00;-2.50;99.90
16823;DHT22;8528;49.976;11.858;2023-03-03T02:10:27;-2.50;99.90
16823;DHT22;8528;49.976;11.858;2023-03-03T02:12:57;-2.60;99.90
16823;DHT22;8528;49.976;11.858;2023-03-03T02:15:29;-2.60;99.90
16823;DHT22;8528;49.976;11.858;2023-03-03T02:18:04;-2.60;99.90
16823;DHT22;8528;49.976;11.858;2023-03-03T02:20:57;-2.60;99.90
16823;DHT22;8528;49.976;11.858;2023-03-03T02:23:35;-2.60;99.90
16823;DHT22;8528;49.976;11.858;2023-03-03T02:26:09;-2.60;99.90
16823;DHT22;8528;49.976;11.858;2023-03-03T02:28:38;-2.60;99.90
16823;DHT22;8528;49.976;11.858;2023-03-03T02:31:08;-2.60;99.90
16823;DHT22;8528;49.976;11.858;2023-03-03T02:33:40;-2.60;99.90
16823;DHT22;8528;49.976;11.858;2023-03-03T02:36:12;-2.60;99.90
16823;DHT22;8528;49.976;11.858;2023-03-03T02:38:55;-2.60;99.90
16823;DHT22;8528;49.976;11.858;2023-03-03T02:46:18;-2.70;99.90
16823;DHT22;8528;49.976;11.858;2023-03-03T02:48:44;-2.70;99.90
16823;DHT22;8528;49.976;11.858;2023-03-03T02:51:11;-2.70;99.90
16823;DHT22;8528;49.976;11.858;2023-03-03T02:53:39;-2.70;99.90
16823;DHT22;8528;49.976;11.858;2023-03-03T02:56:06;-2.70;99.90
16823;DHT22;8528;49.976;11.858;2023-03-03T02:58:36;-2.70;99.90
16823;DHT22;8528;49.976;11.858;2023-03-03T03:01:03;-2.70;99.90
16823;DHT22;8528;49.976;11.858;2023-03-03T03:03:30;-2.70;99.90
16823;DHT22;8528;49.976;11.858;2023-03-03T03:05:57;-2.80;99.90
16823;DHT22;8528;49.976;11.858;2023-03-03T03:08:24;-2.80;99.90
16823;DHT22;8528;49.976;11.858;2023-03-03T03:10:51;-2.80;99.90
16823;DHT22;8528;49.976;11.858;2023-03-03T03:13:18;-2.80;99.90
16823;DHT22;8528;49.976;11.858;2023-03-03T03:15:45;-2.90;99.90
16823;DHT22;8528;49.976;11.858;2023-03-03T03:18:13;-2.90;99.90
16823;DHT22;8528;49.976;11.858;2023-03-03T03:20:40;-2.90;99.90
16823;DHT22;8528;49.976;11.858;2023-03-03T03:23:07;-2.90;99.90
16823;DHT22;8528;49.976;11.858;2023-03-03T03:25:35;-3.00;99.90
16823;DHT22;8528;49.976;11.858;2023-03-03T03:28:08;-3.00;99.90
16823;DHT22;8528;49.976;11.858;2023-03-03T03:30:35;-3.00;99.90
16823;DHT22;8528;49.976;11.858;2023-03-03T03:33:02;-3.00;99.90
16823;DHT22;8528;49.976;11.858;2023-03-03T03:35:29;-3.00;99.90
16823;DHT22;8528;49.976;11.858;2023-03-03T03:37:55;-3.00;99.90
16823;DHT22;8528;49.976;11.858;2023-03-03T03:40:22;-3.00;99.90
16823;DHT22;8528;49.976;11.858;2023-03-03T03:42:51;-3.00;99.90
16823;DHT22;8528;49.976;11.858;2023-03-03T03:45:18;-3.10;99.90
16823;DHT22;8528;49.976;11.858;2023-03-03T03:47:45;-3.10;99.90
16823;DHT22;8528;49.976;11.858;2023-03-03T03:50:12;-3.10;99.90
16823;DHT22;8528;49.976;11.858;2023-03-03T03:52:39;-3.10;99.90
16823;DHT22;8528;49.976;11.858;2023-03-03T03:55:06;-3.20;99.90
16823;DHT22;8528;49.976;11.858;2023-03-03T03:57:33;-3.10;99.90
16823;DHT22;8528;49.976;11.858;2023-03-03T04:00:00;-3.20;99.90
16823;DHT22;8528;49.976;11.858;2023-03-03T04:02:27;-3.20;99.90
16823;DHT22;8528;49.976;11.858;2023-03-03T04:04:54;-3.20;99.90
16823;DHT22;8528;49.976;11.858;2023-03-03T04:07:21;-3.30;99.90
16823;DHT22;8528;49.976;11.858;2023-03-03T04:09:47;-3.30;99.90
16823;DHT22;8528;49.976;11.858;2023-03-03T04:12:14;-3.30;99.90
16823;DHT22;8528;49.976;11.858;2023-03-03T04:14:41;-3.30;99.90
16823;DHT22;8528;49.976;11.858;2023-03-03T04:17:16;-3.40;99.90
16823;DHT22;8528;49.976;11.858;2023-03-03T04:19:43;-3.40;99.90
16823;DHT22;8528;49.976;11.858;2023-03-03T04:22:10;-3.40;99.90
16823;DHT22;8528;49.976;11.858;2023-03-03T04:24:39;-3.40;99.90
16823;DHT22;8528;49.976;11.858;2023-03-03T04:27:06;-3.40;99.90
16823;DHT22;8528;49.976;11.858;2023-03-03T04:29:35;-3.40;99.90
16823;DHT22;8528;49.976;11.858;2023-03-03T04:32:01;-3.40;99.90
16823;DHT22;8528;49.976;11.858;2023-03-03T04:34:28;-3.40;99.90
16823;DHT22;8528;49.976;11.858;2023-03-03T04:36:55;-3.40;99.90
16823;DHT22;8528;49.976;11.858;2023-03-03T04:39:22;-3.40;99.90
16823;DHT22;8528;49.976;11.858;2023-03-03T04:41:49;-3.40;99.90
16823;DHT22;8528;49.976;11.858;2023-03-03T04:44:16;-3.40;99.90
16823;DHT22;8528;49.976;11.858;2023-03-03T04:46:42;-3.40;99.90
16823;DHT22;8528;49.976;11.858;2023-03-03T04:49:09;-3.40;99.90
16823;DHT22;8528;49.976;11.858;2023-03-03T04:51:38;-3.40;99.90
16823;DHT22;8528;49.976;11.858;2023-03-03T04:54:04;-3.40;99.90
16823;DHT22;8528;49.976;11.858;2023-03-03T04:56:31;-3.40;99.90
16823;DHT22;8528;49.976;11.858;2023-03-03T04:58:58;-3.30;99.90
16823;DHT22;8528;49.976;11.858;2023-03-03T05:01:25;-3.40;99.90
16823;DHT22;8528;49.976;11.858;2023-03-03T05:03:52;-3.40;99.90
16823;DHT22;8528;49.976;11.858;2023-03-03T05:06:19;-3.50;99.90
16823;DHT22;8528;49.976;11.858;2023-03-03T05:08:46;-3.50;99.90
16823;DHT22;8528;49.976;11.858;2023-03-03T05:11:13;-3.60;99.90
16823;DHT22;8528;49.976;11.858;2023-03-03T05:13:39;-3.50;99.90
16823;DHT22;8528;49.976;11.858;2023-03-03T05:16:06;-3.60;99.90
16823;DHT22;8528;49.976;11.858;2023-03-03T05:18:34;-3.50;99.90
16823;DHT22;8528;49.976;11.858;2023-03-03T05:21:01;-3.50;99.90
16823;DHT22;8528;49.976;11.858;2023-03-03T05:23:27;-3.50;99.90
16823;DHT22;8528;49.976;11.858;2023-03-03T05:25:54;-3.50;99.90
16823;DHT22;8528;49.976;11.858;2023-03-03T05:28:21;-3.60;99.90
16823;DHT22;8528;49.976;11.858;2023-03-03T05:30:48;-3.60;99.90
16823;DHT22;8528;49.976;11.858;2023-03-03T05:33:16;-3.60;99.90
16823;DHT22;8528;49.976;11.858;2023-03-03T05:35:43;-3.60;99.90
16823;DHT22;8528;49.976;11.858;2023-03-03T05:38:10;-3.70;99.90
16823;DHT22;8528;49.976;11.858;2023-03-03T05:40:37;-3.70;99.90
16823;DHT22;8528;49.976;11.858;2023-03-03T05:43:04;-3.70;99.90
16823;DHT22;8528;49.976;11.858;2023-03-03T05:45:32;-3.70;99.90
16823;DHT22;8528;49.976;11.858;2023-03-03T05:48:00;-3.70;99.90
16823;DHT22;8528;49.976;11.858;2023-03-03T05:50:29;-3.70;99.90
16823;DHT22;8528;49.976;11.858;2023-03-03T05:52:56;-3.70;99.90
16823;DHT22;8528;49.976;11.858;2023-03-03T05:55:23;-3.70;99.90
16823;DHT22;8528;49.976;11.858;2023-03-03T05:57:49;-3.70;99.90
16823;DHT22;8528;49.976;11.858;2023-03-03T06:00:16;-3.70;99.90
16823;DHT22;8528;49.976;11.858;2023-03-03T06:02:43;-3.60;99.90
16823;DHT22;8528;49.976;11.858;2023-03-03T06:05:11;-3.60;99.90
16823;DHT22;8528;49.976;11.858;2023-03-03T06:07:37;-3.60;99.90
16823;DHT22;8528;49.976;11.858;2023-03-03T06:10:05;-3.60;99.90
16823;DHT22;8528;49.976;11.858;2023-03-03T06:12:33;-3.50;99.90
16823;DHT22;8528;49.976;11.858;2023-03-03T06:14:59;-3.50;99.90
16823;DHT22;8528;49.976;11.858;2023-03-03T06:17:26;-3.40;99.90
16823;DHT22;8528;49.976;11.858;2023-03-03T06:19:53;-3.40;99.90
16823;DHT22;8528;49.976;11.858;2023-03-03T06:22:19;-3.30;99.90
16823;DHT22;8528;49.976;11.858;2023-03-03T06:24:46;-3.10;99.90
16823;DHT22;8528;49.976;11.858;2023-03-03T06:27:13;-3.00;99.90
16823;DHT22;8528;49.976;11.858;2023-03-03T06:29:40;-3.00;99.90
16823;DHT22;8528;49.976;11.858;2023-03-03T06:32:07;-2.90;99.90
16823;DHT22;8528;49.976;11.858;2023-03-03T06:34:34;-2.80;99.90
16823;DHT22;8528;49.976;11.858;2023-03-03T06:37:00;-2.70;99.90
16823;DHT22;8528;49.976;11.858;2023-03-03T06:39:27;-2.60;99.90
16823;DHT22;8528;49.976;11.858;2023-03-03T06:41:54;-2.50;99.90
16823;DHT22;8528;49.976;11.858;2023-03-03T06:44:21;-2.40;99.90
16823;DHT22;8528;49.976;11.858;2023-03-03T06:46:48;-2.20;99.90
16823;DHT22;8528;49.976;11.858;2023-03-03T06:49:15;-2.00;99.90
16823;DHT22;8528;49.976;11.858;2023-03-03T06:51:41;-1.90;99.90
16823;DHT22;8528;49.976;11.858;2023-03-03T06:54:14;-1.70;99.90
16823;DHT22;8528;49.976;11.858;2023-03-03T06:56:42;-1.60;99.90
16823;DHT22;8528;49.976;11.858;2023-03-03T07:01:42;-1.40;99.90
16823;DHT22;8528;49.976;11.858;2023-03-03T07:04:31;-1.40;99.90
16823;DHT22;8528;49.976;11.858;2023-03-03T07:07:09;-1.30;99.90
16823;DHT22;8528;49.976;11.858;2023-03-03T07:09:36;-1.30;99.90
16823;DHT22;8528;49.976;11.858;2023-03-03T07:12:10;-1.30;99.90
16823;DHT22;8528;49.976;11.858;2023-03-03T07:14:46;-1.30;99.90
16823;DHT22;8528;49.976;11.858;2023-03-03T07:17:17;-1.40;99.90
16823;DHT22;8528;49.976;11.858;2023-03-03T07:19:45;-1.30;99.90
16823;DHT22;8528;49.976;11.858;2023-03-03T07:22:17;-1.30;99.90
16823;DHT22;8528;49.976;11.858;2023-03-03T07:24:56;-1.20;99.90
16823;DHT22;8528;49.976;11.858;2023-03-03T07:27:28;-1.10;99.90
16823;DHT22;8528;49.976;11.858;2023-03-03T07:32:41;-0.90;99.90
16823;DHT22;8528;49.976;11.858;2023-03-03T07:35:40;-0.70;99.90
16823;DHT22;8528;49.976;11.858;2023-03-03T07:40:53;-0.30;99.90
16823;DHT22;8528;49.976;11.858;2023-03-03T07:43:53;-0.20;99.90
16823;DHT22;8528;49.976;11.858;2023-03-03T07:46:39;-0.10;99.90
16823;DHT22;8528;49.976;11.858;2023-03-03T07:49:34;0.10;99.90
16823;DHT22;8528;49.976;11.858;2023-03-03T07:52:22;0.20;99.90
16823;DHT22;8528;49.976;11.858;2023-03-03T07:54:51;0.30;99.90
16823;DHT22;8528;49.976;11.858;2023-03-03T07:57:35;0.30;99.90
16823;DHT22;8528;49.976;11.858;2023-03-03T08:03:01;0.50;99.90
16823;DHT22;8528;49.976;11.858;2023-03-03T08:13:22;1.00;99.90
16823;DHT22;8528;49.976;11.858;2023-03-03T08:21:12;1.60;99.90
16823;DHT22;8528;49.976;11.858;2023-03-03T08:23:39;2.20;99.90
16823;DHT22;8528;49.976;11.858;2023-03-03T08:26:06;2.80;99.90
16823;DHT22;8528;49.976;11.858;2023-03-03T08:28:33;4.00;99.90
16823;DHT22;8528;49.976;11.858;2023-03-03T08:31:00;5.70;99.90
16823;DHT22;8528;49.976;11.858;2023-03-03T08:33:45;7.50;99.90
16823;DHT22;8528;49.976;11.858;2023-03-03T08:36:13;9.00;99.90
16823;DHT22;8528;49.976;11.858;2023-03-03T08:38:40;9.40;96.30
16823;DHT22;8528;49.976;11.858;2023-03-03T08:41:07;9.80;95.60
16823;DHT22;8528;49.976;11.858;2023-03-03T08:43:34;10.90;91.10
16823;DHT22;8528;49.976;11.858;2023-03-03T08:46:02;12.60;83.60
16823;DHT22;8528;49.976;11.858;2023-03-03T08:48:32;13.80;72.90
16823;DHT22;8528;49.976;11.858;2023-03-03T08:50:59;15.10;63.20
16823;DHT22;8528;49.976;11.858;2023-03-03T08:53:26;16.90;57.20
16823;DHT22;8528;49.976;11.858;2023-03-03T08:55:53;18.10;53.30
16823;DHT22;8528;49.976;11.858;2023-03-03T08:58:20;19.50;48.10
16823;DHT22;8528;49.976;11.858;2023-03-03T09:01:00;20.40;45.90
16823;DHT22;8528;49.976;11.858;2023-03-03T09:03:27;21.70;42.40
16823;DHT22;8528;49.976;11.858;2023-03-03T09:05:54;22.70;39.20
16823;DHT22;8528;49.976;11.858;2023-03-03T09:08:22;23.70;38.90
16823;DHT22;8528;49.976;11.858;2023-03-03T09:10:48;24.00;37.10
16823;DHT22;8528;49.976;11.858;2023-03-03T09:13:17;24.40;36.10
16823;DHT22;8528;49.976;11.858;2023-03-03T09:15:45;24.80;34.70
16823;DHT22;8528;49.976;11.858;2023-03-03T09:20:43;25.50;33.40
16823;DHT22;8528;49.976;11.858;2023-03-03T09:23:35;26.80;32.60
16823;DHT22;8528;49.976;11.858;2023-03-03T09:28:44;26.50;31.80
16823;DHT22;8528;49.976;11.858;2023-03-03T09:31:38;26.60;31.50
16823;DHT22;8528;49.976;11.858;2023-03-03T09:39:41;27.30;29.60
16823;DHT22;8528;49.976;11.858;2023-03-03T09:42:30;26.90;29.00
16823;DHT22;8528;49.976;11.858;2023-03-03T09:45:15;25.20;29.50
16823;DHT22;8528;49.976;11.858;2023-03-03T09:53:22;19.10;38.00
16823;DHT22;8528;49.976;11.858;2023-03-03T09:56:06;17.50;41.80
16823;DHT22;8528;49.976;11.858;2023-03-03T09:59:06;16.60;43.70
16823;DHT22;8528;49.976;11.858;2023-03-03T10:18:34;17.90;41.20
16823;DHT22;8528;49.976;11.858;2023-03-03T10:21:53;17.80;42.00
16823;DHT22;8528;49.976;11.858;2023-03-03T10:29:58;21.30;36.60
16823;DHT22;8528;49.976;11.858;2023-03-03T10:32:39;21.90;35.20
16823;DHT22;8528;49.976;11.858;2023-03-03T10:38:09;25.40;31.50
16823;DHT22;8528;49.976;11.858;2023-03-03T10:44:05;26.90;29.50
16823;DHT22;8528;49.976;11.858;2023-03-03T10:47:13;28.80;28.20
16823;DHT22;8528;49.976;11.858;2023-03-03T10:55:31;28.90;28.00
16823;DHT22;8528;49.976;11.858;2023-03-03T11:01:01;28.80;26.80
16823;DHT22;8528;49.976;11.858;2023-03-03T11:11:55;30.90;26.40
16823;DHT22;8528;49.976;11.858;2023-03-03T11:15:34;31.00;25.70
16823;DHT22;8528;49.976;11.858;2023-03-03T11:33:09;29.20;25.70
16823;DHT22;8528;49.976;11.858;2023-03-03T11:38:58;27.20;27.10
16823;DHT22;8528;49.976;11.858;2023-03-03T11:41:41;28.70;25.90
16823;DHT22;8528;49.976;11.858;2023-03-03T11:47:38;30.10;25.00
16823;DHT22;8528;49.976;11.858;2023-03-03T11:50:25;29.60;25.20
16823;DHT22;8528;49.976;11.858;2023-03-03T11:55:59;31.20;24.80
16823;DHT22;8528;49.976;11.858;2023-03-03T11:58:40;31.80;24.20
16823;DHT22;8528;49.976;11.858;2023-03-03T12:01:29;30.90;24.10
16823;DHT22;8528;49.976;11.858;2023-03-03T12:04:11;30.60;24.20
16823;DHT22;8528;49.976;11.858;2023-03-03T12:07:05;31.30;23.50
16823;DHT22;8528;49.976;11.858;2023-03-03T12:12:42;32.20;24.10
16823;DHT22;8528;49.976;11.858;2023-03-03T12:21:08;30.40;25.40
16823;DHT22;8528;49.976;11.858;2023-03-03T12:26:35;28.80;26.20
16823;DHT22;8528;49.976;11.858;2023-03-03T12:29:24;28.00;27.20
16823;DHT22;8528;49.976;11.858;2023-03-03T12:42:55;27.50;27.20
16823;DHT22;8528;49.976;11.858;2023-03-03T12:45:35;27.70;27.40
16823;DHT22;8528;49.976;11.858;2023-03-03T12:48:07;27.60;27.80
16823;DHT22;8528;49.976;11.858;2023-03-03T12:51:03;27.30;28.40
16823;DHT22;8528;49.976;11.858;2023-03-03T12:56:34;24.40;28.30
16823;DHT22;8528;49.976;11.858;2023-03-03T13:04:55;22.00;31.70
16823;DHT22;8528;49.976;11.858;2023-03-03T13:07:38;21.40;33.20
16823;DHT22;8528;49.976;11.858;2023-03-03T13:13:02;21.30;32.70
16823;DHT22;8528;49.976;11.858;2023-03-03T13:15:43;21.20;32.70
16823;DHT22;8528;49.976;11.858;2023-03-03T13:21:48;20.90;33.00
16823;DHT22;8528;49.976;11.858;2023-03-03T13:27:40;21.50;32.40
16823;DHT22;8528;49.976;11.858;2023-03-03T13:30:21;22.90;30.70
16823;DHT22;8528;49.976;11.858;2023-03-03T13:33:23;21.20;32.40
16823;DHT22;8528;49.976;11.858;2023-03-03T13:35:58;20.00;34.10
16823;DHT22;8528;49.976;11.858;2023-03-03T13:38:35;18.90;35.30
16823;DHT22;8528;49.976;11.858;2023-03-03T13:43:48;19.70;34.40
16823;DHT22;8528;49.976;11.858;2023-03-03T13:52:05;18.60;35.40
16823;DHT22;8528;49.976;11.858;2023-03-03T13:54:52;18.30;36.50
16823;DHT22;8528;49.976;11.858;2023-03-03T13:57:43;18.20;36.30
16823;DHT22;8528;49.976;11.858;2023-03-03T14:06:06;18.10;33.90
16823;DHT22;8528;49.976;11.858;2023-03-03T14:17:00;16.90;36.60
16823;DHT22;8528;49.976;11.858;2023-03-03T14:19:47;15.70;37.80
16823;DHT22;8528;49.976;11.858;2023-03-03T14:22:17;15.10;38.40
16823;DHT22;8528;49.976;11.858;2023-03-03T14:27:58;14.30;39.50
16823;DHT22;8528;49.976;11.858;2023-03-03T14:30:38;13.90;41.60
16823;DHT22;8528;49.976;11.858;2023-03-03T14:36:23;12.50;44.30
16823;DHT22;8528;49.976;11.858;2023-03-03T14:43:43;10.20;50.10
16823;DHT22;8528;49.976;11.858;2023-03-03T14:48:58;9.30;53.60
16823;DHT22;8528;49.976;11.858;2023-03-03T14:53:59;8.80;56.50
16823;DHT22;8528;49.976;11.858;2023-03-03T14:59:24;8.60;58.20
16823;DHT22;8528;49.976;11.858;2023-03-03T15:04:43;8.50;59.60
16823;DHT22;8528;49.976;11.858;2023-03-03T15:07:33;8.30;59.40
16823;DHT22;8528;49.976;11.858;2023-03-03T15:10:02;7.90;59.80
16823;DHT22;8528;49.976;11.858;2023-03-03T15:17:55;6.70;65.70
16823;DHT22;8528;49.976;11.858;2023-03-03T15:23:29;6.40;68.40
16823;DHT22;8528;49.976;11.858;2023-03-03T15:26:09;6.40;69.10
16823;DHT22;8528;49.976;11.858;2023-03-03T15:31:52;6.00;72.30
16823;DHT22;8528;49.976;11.858;2023-03-03T15:34:45;5.90;72.80
16823;DHT22;8528;49.976;11.858;2023-03-03T15:47:57;5.10;78.30
16823;DHT22;8528;49.976;11.858;2023-03-03T15:54:01;4.90;81.20
16823;DHT22;8528;49.976;11.858;2023-03-03T15:56:54;4.80;83.00
16823;DHT22;8528;49.976;11.858;2023-03-03T16:00:14;4.80;83.90
16823;DHT22;8528;49.976;11.858;2023-03-03T16:02:45;4.60;84.10
16823;DHT22;8528;49.976;11.858;2023-03-03T16:11:27;4.00;89.70
16823;DHT22;8528;49.976;11.858;2023-03-03T16:17:06;3.80;92.30
16823;DHT22;8528;49.976;11.858;2023-03-03T16:22:23;3.50;95.80
16823;DHT22;8528;49.976;11.858;2023-03-03T16:25:25;3.30;97.10
16823;DHT22;8528;49.976;11.858;2023-03-03T16:28:20;3.10;99.70
16823;DHT22;8528;49.976;11.858;2023-03-03T16:30:56;3.00;99.90
16823;DHT22;8528;49.976;11.858;2023-03-03T16:42:28;2.20;99.90
16823;DHT22;8528;49.976;11.858;2023-03-03T16:47:58;2.00;99.90
16823;DHT22;8528;49.976;11.858;2023-03-03T16:50:53;1.90;99.90
16823;DHT22;8528;49.976;11.858;2023-03-03T16:56:35;1.80;99.90
16823;DHT22;8528;49.976;11.858;2023-03-03T17:02:31;1.60;99.90
16823;DHT22;8528;49.976;11.858;2023-03-03T17:08:06;1.50;99.90
16823;DHT22;8528;49.976;11.858;2023-03-03T17:10:41;1.40;99.90
16823;DHT22;8528;49.976;11.858;2023-03-03T17:24:05;0.90;99.90
16823;DHT22;8528;49.976;11.858;2023-03-03T17:26:43;0.80;99.90
16823;DHT22;8528;49.976;11.858;2023-03-03T17:34:55;0.60;99.90
16823;DHT22;8528;49.976;11.858;2023-03-03T17:45:11;0.30;99.90
16823;DHT22;8528;49.976;11.858;2023-03-03T17:59:34;0.20;99.90
16823;DHT22;8528;49.976;11.858;2023-03-03T18:05:24;0.20;99.90
16823;DHT22;8528;49.976;11.858;2023-03-03T18:08:21;0.10;99.90
16823;DHT22;8528;49.976;11.858;2023-03-03T18:11:18;0.10;99.90
16823;DHT22;8528;49.976;11.858;2023-03-03T18:21:35;0.00;99.90
16823;DHT22;8528;49.976;11.858;2023-03-03T18:24:37;-0.10;99.90
16823;DHT22;8528;49.976;11.858;2023-03-03T18:27:29;-0.20;99.90
16823;DHT22;8528;49.976;11.858;2023-03-03T18:35:32;-0.40;99.90
16823;DHT22;8528;49.976;11.858;2023-03-03T18:43:40;-0.60;99.90
16823;DHT22;8528;49.976;11.858;2023-03-03T18:49:06;-0.70;99.90
16823;DHT22;8528;49.976;11.858;2023-03-03T18:54:23;-0.80;99.90
16823;DHT22;8528;49.976;11.858;2023-03-03T19:04:54;-1.00;99.90
16823;DHT22;8528;49.976;11.858;2023-03-03T19:07:28;-1.10;99.90
16823;DHT22;8528;49.976;11.858;2023-03-03T19:10:00;-1.10;99.90
16823;DHT22;8528;49.976;11.858;2023-03-03T19:20:43;-1.20;99.90
16823;DHT22;8528;49.976;11.858;2023-03-03T19:23:19;-1.30;99.90
16823;DHT22;8528;49.976;11.858;2023-03-03T19:34:56;-1.50;99.90
16823;DHT22;8528;49.976;11.858;2023-03-03T19:39:59;-1.60;99.90
16823;DHT22;8528;49.976;11.858;2023-03-03T19:42:52;-1.60;99.90
16823;DHT22;8528;49.976;11.858;2023-03-03T19:48:25;-1.80;99.90
16823;DHT22;8528;49.976;11.858;2023-03-03T19:53:58;-1.80;99.90
16823;DHT22;8528;49.976;11.858;2023-03-03T19:56:36;-1.80;99.90
16823;DHT22;8528;49.976;11.858;2023-03-03T20:04:40;-1.90;99.90
16823;DHT22;8528;49.976;11.858;2023-03-03T20:07:26;-2.00;99.90
16823;DHT22;8528;49.976;11.858;2023-03-03T20:12:59;-2.10;99.90
16823;DHT22;8528;49.976;11.858;2023-03-03T20:15:38;-2.10;99.90
16823;DHT22;8528;49.976;11.858;2023-03-03T20:18:25;-2.20;99.90
16823;DHT22;8528;49.976;11.858;2023-03-03T20:21:33;-2.20;99.90
16823;DHT22;8528;49.976;11.858;2023-03-03T20:29:34;-2.40;99.90
16823;DHT22;8528;49.976;11.858;2023-03-03T20:37:45;-2.50;99.90
16823;DHT22;8528;49.976;11.858;2023-03-03T20:40:29;-2.50;99.90
16823;DHT22;8528;49.976;11.858;2023-03-03T20:43:14;-2.60;99.90
16823;DHT22;8528;49.976;11.858;2023-03-03T20:46:06;-2.60;99.90
16823;DHT22;8528;49.976;11.858;2023-03-03T20:49:10;-2.60;99.90
16823;DHT22;8528;49.976;11.858;2023-03-03T20:52:01;-2.70;99.90
16823;DHT22;8528;49.976;11.858;2023-03-03T20:57:06;-2.70;99.90
16823;DHT22;8528;49.976;11.858;2023-03-03T20:59:53;-2.70;99.90
16823;DHT22;8528;49.976;11.858;2023-03-03T21:05:18;-2.80;99.90
16823;DHT22;8528;49.976;11.858;2023-03-03T21:10:25;-2.80;99.90
16823;DHT22;8528;49.976;11.858;2023-03-03T21:12:54;-2.80;99.90
16823;DHT22;8528;49.976;11.858;2023-03-03T21:15:30;-2.90;99.90
16823;DHT22;8528;49.976;11.858;2023-03-03T21:17:58;-2.90;99.90
16823;DHT22;8528;49.976;11.858;2023-03-03T21:20:31;-2.90;99.90
16823;DHT22;8528;49.976;11.858;2023-03-03T21:23:00;-3.00;99.90
16823;DHT22;8528;49.976;11.858;2023-03-03T21:28:20;-3.00;99.90
16823;DHT22;8528;49.976;11.858;2023-03-03T21:36:05;-3.10;99.90
16823;DHT22;8528;49.976;11.858;2023-03-03T21:38:36;-3.10;99.90
16823;DHT22;8528;49.976;11.858;2023-03-03T21:41:05;-3.10;99.90
16823;DHT22;8528;49.976;11.858;2023-03-03T21:43:34;-3.10;99.90
16823;DHT22;8528;49.976;11.858;2023-03-03T21:46:01;-3.10;99.90
16823;DHT22;8528;49.976;11.858;2023-03-03T21:48:28;-3.20;99.90
16823;DHT22;8528;49.976;11.858;2023-03-03T21:50:55;-3.20;99.90
16823;DHT22;8528;49.976;11.858;2023-03-03T21:53:22;-3.20;99.90
16823;DHT22;8528;49.976;11.858;2023-03-03T21:55:49;-3.20;99.90
16823;DHT22;8528;49.976;11.858;2023-03-03T21:58:16;-3.20;99.90
16823;DHT22;8528;49.976;11.858;2023-03-03T22:00:43;-3.20;99.90
16823;DHT22;8528;49.976;11.858;2023-03-03T22:03:11;-3.20;99.90
16823;DHT22;8528;49.976;11.858;2023-03-03T22:05:39;-3.20;99.90
16823;DHT22;8528;49.976;11.858;2023-03-03T22:08:06;-3.20;99.90
16823;DHT22;8528;49.976;11.858;2023-03-03T22:10:33;-3.20;99.90
16823;DHT22;8528;49.976;11.858;2023-03-03T22:13:00;-3.20;99.90
16823;DHT22;8528;49.976;11.858;2023-03-03T22:15:26;-3.20;99.90
16823;DHT22;8528;49.976;11.858;2023-03-03T22:17:56;-3.20;99.90
16823;DHT22;8528;49.976;11.858;2023-03-03T22:20:22;-3.20;99.90
16823;DHT22;8528;49.976;11.858;2023-03-03T22:22:49;-3.30;99.90
16823;DHT22;8528;49.976;11.858;2023-03-03T22:25:16;-3.30;99.90
16823;DHT22;8528;49.976;11.858;2023-03-03T22:27:43;-3.30;99.90
16823;DHT22;8528;49.976;11.858;2023-03-03T22:30:10;-3.30;99.90
16823;DHT22;8528;49.976;11.858;2023-03-03T22:32:37;-3.30;99.90
16823;DHT22;8528;49.976;11.858;2023-03-03T22:35:04;-3.30;99.90
16823;DHT22;8528;49.976;11.858;2023-03-03T22:37:31;-3.30;99.90
16823;DHT22;8528;49.976;11.858;2023-03-03T22:39:58;-3.40;99.90
16823;DHT22;8528;49.976;11.858;2023-03-03T22:42:24;-3.40;99.90
16823;DHT22;8528;49.976;11.858;2023-03-03T22:44:51;-3.40;99.90
16823;DHT22;8528;49.976;11.858;2023-03-03T22:47:18;-3.40;99.90
16823;DHT22;8528;49.976;11.858;2023-03-03T22:49:44;-3.40;99.90